Time;durP1;ratioP1;P1;durP2;ratioP2;P2;SDS_P1;SDS_P2;PMS_P1;PMS_P2;Temp;Humidity;BMP_temperature;BMP_pressure;BME280_temperature;BME280_humidity;BME280_pressure;Samples;Min_cycle;Max_cycle;Signal;HPM_P1;HPM_P2
2022/02/06 00:01:27;;;;;;;6.20;1.83;;;;;;;;;;6368400;27;19972;-76
2022/02/06 00:04:30;;;;;;;6.78;1.80;;;;;;;;;;6367917;27;20047;-78
2022/02/06 00:07:33;;;;;;;6.75;2.47;;;;;;;;;;6368447;27;20062;-76
2022/02/06 00:10:36;;;;;;;5.15;2.67;;;;;;;;;;6369012;27;20043;-76
2022/02/06 00:13:40;;;;;;;3.92;1.88;;;;;;;;;;6366671;27;20058;-76
2022/02/06 00:16:44;;;;;;;5.50;1.77;;;;;;;;;;6368255;27;20043;-75
2022/02/06 00:19:47;;;;;;;5.80;2.03;;;;;;;;;;6367066;27;20047;-75
2022/02/06 00:22:54;;;;;;;6.50;2.13;;;;;;;;;;6368834;27;20114;-75
2022/02/06 00:26:05;;;;;;;3.33;2.00;;;;;;;;;;6366221;27;20103;-75
2022/02/06 00:29:21;;;;;;;10.38;2.47;;;;;;;;;;6367088;27;20141;-76
2022/02/06 00:32:33;;;;;;;5.13;2.22;;;;;;;;;;6367426;27;20401;-76
2022/02/06 00:35:55;;;;;;;5.45;2.05;;;;;;;;;;6366748;27;20043;-76
2022/02/06 00:39:04;;;;;;;6.32;2.00;;;;;;;;;;6366001;27;20050;-74
2022/02/06 00:42:07;;;;;;;6.50;2.13;;;;;;;;;;6367803;27;20092;-74
2022/02/06 00:45:11;;;;;;;6.72;1.98;;;;;;;;;;6366739;27;20418;-76
2022/02/06 00:48:21;;;;;;;4.68;1.80;;;;;;;;;;6365827;27;20046;-77
2022/02/06 00:51:34;;;;;;;3.42;1.80;;;;;;;;;;6365782;27;20156;-75
2022/02/06 00:54:38;;;;;;;3.75;1.73;;;;;;;;;;6366654;27;20053;-75
2022/02/06 00:57:41;;;;;;;4.47;1.70;;;;;;;;;;6367803;27;20062;-74
2022/02/06 01:00:44;;;;;;;3.33;1.38;;;;;;;;;;6366700;27;20107;-75
2022/02/06 01:03:53;;;;;;;6.72;2.80;;;;;;;;;;6366080;28;20051;-75
2022/02/06 01:06:58;;;;;;;3.22;1.90;;;;;;;;;;6367095;28;20043;-75
2022/02/06 01:10:01;;;;;;;5.00;1.50;;;;;;;;;;6367468;27;20088;-74
2022/02/06 01:13:16;;;;;;;3.50;1.58;;;;;;;;;;6369543;27;20477;-75
2022/02/06 01:16:24;;;;;;;6.68;2.55;;;;;;;;;;6371731;27;20443;-75
2022/02/06 01:19:38;;;;;;;3.90;1.58;;;;;;;;;;6371798;27;20121;-75
2022/02/06 01:22:50;;;;;;;3.80;2.13;;;;;;;;;;6372083;27;20043;-75
2022/02/06 01:25:57;;;;;;;3.92;1.60;;;;;;;;;;6370825;27;20047;-74
2022/02/06 01:29:10;;;;;;;3.95;1.90;;;;;;;;;;6368454;27;20051;-74
2022/02/06 01:32:16;;;;;;;4.68;1.95;;;;;;;;;;6369290;27;20058;-75
2022/02/06 01:35:28;;;;;;;2.40;1.83;;;;;;;;;;6366979;27;20047;-75
2022/02/06 01:38:47;;;;;;;8.18;2.00;;;;;;;;;;6368644;27;20047;-75
2022/02/06 01:41:56;;;;;;;8.23;2.10;;;;;;;;;;6369566;27;20070;-75
2022/02/06 01:45:13;;;;;;;3.45;1.60;;;;;;;;;;6371032;27;20095;-76
2022/02/06 02:02:07;;;;;;;5.60;1.98;;;;;;;;;;6343484;27;20051;-75
2022/02/06 02:09:17;;;;;;;15.00;2.58;;;;;;;;;;6357743;27;20413;-75
2022/02/06 02:12:38;;;;;;;4.05;2.10;;;;;;;;;;6371411;27;20047;-76
2022/02/06 02:19:28;;;;;;;5.05;2.22;;;;;;;;;;6346630;27;20538;-75
2022/02/06 02:43:04;;;;;;;4.35;2.25;;;;;;;;;;6369652;27;20051;-75
2022/02/06 02:46:12;;;;;;;7.57;2.58;;;;;;;;;;6370570;27;20047;-74
2022/02/06 02:49:19;;;;;;;8.15;2.42;;;;;;;;;;6368109;27;20477;-74
2022/02/06 02:52:40;;;;;;;5.30;2.28;;;;;;;;;;6370042;27;20043;-75
2022/02/06 02:59:08;;;;;;;4.05;2.40;;;;;;;;;;6369882;27;20055;-74
2022/02/06 03:02:12;;;;;;;6.68;2.88;;;;;;;;;;6367929;27;20043;-74
2022/02/06 03:05:15;;;;;;;4.97;2.75;;;;;;;;;;6369762;27;20051;-74
2022/02/06 03:08:20;;;;;;;6.43;2.63;;;;;;;;;;6370497;27;20092;-74
2022/02/06 03:11:24;;;;;;;5.13;2.58;;;;;;;;;;6367570;27;20050;-74
2022/02/06 03:14:40;;;;;;;6.65;2.53;;;;;;;;;;6369276;27;20088;-74
2022/02/06 03:17:56;;;;;;;3.80;2.10;;;;;;;;;;6368612;27;20058;-74
2022/02/06 03:21:01;;;;;;;4.43;2.30;;;;;;;;;;6368662;27;20043;-74
2022/02/06 03:24:18;;;;;;;6.15;2.30;;;;;;;;;;6367665;27;20053;-74
2022/02/06 03:27:23;;;;;;;6.25;2.20;;;;;;;;;;6369250;27;20600;-74
2022/02/06 03:30:29;;;;;;;2.95;2.10;;;;;;;;;;6369769;27;20043;-74
2022/02/06 03:33:35;;;;;;;6.78;2.03;;;;;;;;;;6368036;27;20481;-75
2022/02/06 03:36:38;;;;;;;7.22;1.98;;;;;;;;;;6365992;27;20043;-75
2022/02/06 03:39:47;;;;;;;4.65;2.25;;;;;;;;;;6368389;27;20042;-75
2022/02/06 03:46:15;;;;;;;8.05;1.88;;;;;;;;;;6364933;27;20047;-75
2022/02/06 03:49:28;;;;;;;8.35;2.08;;;;;;;;;;6364548;27;20073;-75
2022/02/06 03:52:37;;;;;;;3.13;1.90;;;;;;;;;;6365576;27;20039;-75
2022/02/06 03:55:39;;;;;;;4.15;1.80;;;;;;;;;;6365594;27;20071;-75
2022/02/06 03:58:44;;;;;;;2.58;1.70;;;;;;;;;;6364833;27;20050;-73
2022/02/06 04:01:47;;;;;;;4.28;1.60;;;;;;;;;;6367850;27;20043;-74
2022/02/06 04:04:50;;;;;;;2.85;1.60;;;;;;;;;;6367538;27;20043;-74
2022/02/06 04:07:53;;;;;;;3.22;1.50;;;;;;;;;;6367437;27;20068;-74
2022/02/06 04:10:58;;;;;;;5.03;1.83;;;;;;;;;;6368056;27;20378;-75
2022/02/06 04:14:09;;;;;;;4.65;2.15;;;;;;;;;;6368546;27;20393;-74
2022/02/06 04:17:21;;;;;;;3.25;1.83;;;;;;;;;;6366860;27;20047;-74
2022/02/06 04:20:26;;;;;;;2.72;2.10;;;;;;;;;;6367235;27;20430;-75
2022/02/06 04:23:30;;;;;;;6.07;1.90;;;;;;;;;;6368207;27;20039;-75
2022/02/06 04:26:34;;;;;;;6.70;2.13;;;;;;;;;;6366958;27;20545;-74
2022/02/06 04:29:41;;;;;;;3.83;1.85;;;;;;;;;;6366128;27;20051;-75
2022/02/06 04:32:44;;;;;;;3.72;1.80;;;;;;;;;;6366047;27;20103;-76
2022/02/06 04:35:50;;;;;;;3.13;1.35;;;;;;;;;;6366835;27;20054;-76
2022/02/06 04:39:04;;;;;;;4.50;2.05;;;;;;;;;;6366579;27;20104;-77
2022/02/06 04:42:18;;;;;;;5.32;1.65;;;;;;;;;;6365618;27;20054;-78
2022/02/06 04:45:43;;;;;;;4.67;2.27;;;;;;;;;;6366885;27;20195;-77
2022/02/06 04:52:47;;;;;;;3.33;2.13;;;;;;;;;;6366483;27;20458;-77
2022/02/06 05:16:20;;;;;;;4.88;2.30;;;;;;;;;;6367276;27;20055;-76
2022/02/06 05:23:18;;;;;;;4.45;2.15;;;;;;;;;;6314231;28;20048;-75
2022/02/06 05:29:48;;;;;;;7.53;2.10;;;;;;;;;;6364530;28;20055;-75
2022/02/06 05:32:58;;;;;;;3.63;1.80;;;;;;;;;;6367940;27;20503;-75
2022/02/06 05:36:04;;;;;;;5.13;2.30;;;;;;;;;;6366487;28;20046;-74
2022/02/06 05:39:07;;;;;;;3.15;1.58;;;;;;;;;;6365261;28;20458;-76
2022/02/06 05:42:12;;;;;;;3.88;1.95;;;;;;;;;;6365737;28;20035;-76
2022/02/06 05:45:20;;;;;;;3.57;1.60;;;;;;;;;;6366641;28;20164;-77
2022/02/06 05:48:23;;;;;;;5.82;2.20;;;;;;;;;;6367329;27;20417;-75
2022/02/06 05:51:27;;;;;;;5.43;1.60;;;;;;;;;;6365450;28;20043;-75
2022/02/06 05:54:31;;;;;;;4.15;1.90;;;;;;;;;;6367271;27;20050;-75
2022/02/06 05:57:36;;;;;;;2.95;2.00;;;;;;;;;;6366044;28;20497;-76
2022/02/06 06:00:39;;;;;;;5.57;1.98;;;;;;;;;;6367781;27;20401;-75
2022/02/06 06:03:43;;;;;;;7.18;2.00;;;;;;;;;;6371663;27;20071;-75
2022/02/06 06:06:49;;;;;;;4.38;2.40;;;;;;;;;;6372363;27;20046;-76
2022/02/06 06:09:52;;;;;;;5.47;1.90;;;;;;;;;;6369770;27;20511;-76
2022/02/06 06:12:56;;;;;;;6.93;2.03;;;;;;;;;;6369194;27;20046;-75
2022/02/06 06:16:00;;;;;;;6.03;1.73;;;;;;;;;;6370494;27;20039;-76
2022/02/06 06:19:05;;;;;;;4.72;1.60;;;;;;;;;;6371807;27;20055;-76
2022/02/06 06:22:11;;;;;;;6.85;2.08;;;;;;;;;;6370166;27;20130;-76
2022/02/06 06:25:17;;;;;;;4.38;1.60;;;;;;;;;;6371569;27;20047;-77
2022/02/06 06:28:20;;;;;;;2.67;1.60;;;;;;;;;;6370393;27;20477;-78
2022/02/06 06:31:23;;;;;;;3.15;1.70;;;;;;;;;;6370515;27;20054;-77
2022/02/06 06:34:26;;;;;;;3.00;1.80;;;;;;;;;;6370096;27;20126;-78
2022/02/06 06:37:31;;;;;;;3.80;1.92;;;;;;;;;;6369782;27;20039;-75
2022/02/06 06:40:36;;;;;;;5.68;1.70;;;;;;;;;;6369724;27;20115;-76
2022/02/06 06:43:39;;;;;;;4.30;1.50;;;;;;;;;;6368513;27;20047;-75
2022/02/06 06:46:42;;;;;;;2.83;1.50;;;;;;;;;;6369571;27;20039;-75
2022/02/06 06:49:46;;;;;;;2.67;1.70;;;;;;;;;;6369852;27;20047;-75
2022/02/06 06:52:50;;;;;;;3.92;1.50;;;;;;;;;;6369603;27;20118;-76
2022/02/06 06:56:00;;;;;;;4.30;1.85;;;;;;;;;;6369124;27;20052;-76
2022/02/06 06:59:13;;;;;;;2.92;1.58;;;;;;;;;;6370841;27;20089;-75
2022/02/06 07:02:27;;;;;;;4.20;2.00;;;;;;;;;;6369143;27;20046;-76
2022/02/06 07:05:32;;;;;;;3.50;1.45;;;;;;;;;;6369392;27;20046;-75
2022/02/06 07:08:37;;;;;;;4.28;1.70;;;;;;;;;;6352001;27;20051;-75
2022/02/06 07:11:42;;;;;;;5.13;1.70;;;;;;;;;;6368991;27;20184;-76
2022/02/06 07:14:46;;;;;;;3.00;1.80;;;;;;;;;;6369350;27;20055;-75
2022/02/06 07:17:50;;;;;;;4.68;1.77;;;;;;;;;;6369653;27;20047;-76
2022/02/06 07:20:56;;;;;;;3.72;1.70;;;;;;;;;;6368879;27;20051;-74
2022/02/06 07:24:02;;;;;;;;;;;;;;;;;;6370267;27;20039;-76
2022/02/06 07:27:18;;;;;;;4.97;1.80;;;;;;;;;;6368666;27;19920;-77
2022/02/06 07:30:22;;;;;;;5.07;1.70;;;;;;;;;;6369811;27;20130;-76
2022/02/06 07:33:25;;;;;;;2.15;1.40;;;;;;;;;;6368779;27;20043;-76
2022/02/06 07:36:28;;;;;;;2.80;1.58;;;;;;;;;;6368783;27;20122;-74
2022/02/06 07:39:31;;;;;;;3.28;1.65;;;;;;;;;;6367795;27;20100;-74
2022/02/06 07:42:38;;;;;;;4.15;2.00;;;;;;;;;;6368405;27;20051;-76
2022/02/06 07:45:50;;;;;;;3.10;1.98;;;;;;;;;;6368213;27;20055;-75
2022/02/06 07:48:54;;;;;;;4.47;2.08;;;;;;;;;;6368091;27;20087;-75
2022/02/06 07:51:58;;;;;;;4.60;1.55;;;;;;;;;;6367725;27;20054;-75
2022/02/06 07:55:03;;;;;;;4.47;2.08;;;;;;;;;;6369198;27;20619;-75
2022/02/06 07:58:08;;;;;;;5.45;2.08;;;;;;;;;;6366825;27;20059;-75
2022/02/06 08:01:13;;;;;;;5.20;2.10;;;;;;;;;;6367202;27;20062;-75
2022/02/06 08:04:16;;;;;;;5.22;2.00;;;;;;;;;;6368067;27;20279;-74
2022/02/06 08:07:19;;;;;;;3.60;2.00;;;;;;;;;;6367184;27;20171;-75
2022/02/06 08:10:22;;;;;;;3.90;2.30;;;;;;;;;;6366475;27;20043;-74
2022/02/06 08:13:39;;;;;;;3.83;2.40;;;;;;;;;;6367481;27;20066;-76
2022/02/06 08:16:42;;;;;;;5.10;2.35;;;;;;;;;;6367629;27;20054;-74
2022/02/06 08:19:45;;;;;;;5.53;2.60;;;;;;;;;;6366364;27;20129;-74
2022/02/06 08:22:51;;;;;;;10.82;2.80;;;;;;;;;;6366162;27;20473;-73
2022/02/06 08:25:54;;;;;;;5.28;2.22;;;;;;;;;;6369130;27;20047;-73
2022/02/06 08:29:01;;;;;;;5.45;2.50;;;;;;;;;;6366690;27;20500;-72
2022/02/06 08:32:05;;;;;;;5.60;2.22;;;;;;;;;;6366252;27;20051;-73
2022/02/06 08:35:09;;;;;;;7.20;2.97;;;;;;;;;;6367174;27;20413;-73
2022/02/06 08:38:12;;;;;;;6.03;2.30;;;;;;;;;;6367668;27;20043;-73
2022/02/06 08:41:22;;;;;;;4.68;2.40;;;;;;;;;;6367050;27;20080;-74
2022/02/06 08:44:26;;;;;;;5.70;2.60;;;;;;;;;;6368012;27;20047;-74
2022/02/06 08:47:29;;;;;;;5.50;3.28;;;;;;;;;;6368145;27;20069;-75
2022/02/06 08:50:33;;;;;;;6.13;3.28;;;;;;;;;;6367832;27;20330;-75
2022/02/06 08:53:38;;;;;;;8.52;2.60;;;;;;;;;;6367510;27;20087;-76
2022/02/06 08:56:44;;;;;;;5.50;2.97;;;;;;;;;;6366618;27;20059;-75
2022/02/06 08:59:49;;;;;;;5.18;2.55;;;;;;;;;;6366771;27;20054;-76
2022/02/06 09:02:53;;;;;;;6.50;3.05;;;;;;;;;;6366645;27;20083;-76
2022/02/06 09:05:57;;;;;;;7.30;3.45;;;;;;;;;;6367337;27;20066;-76
2022/02/06 09:09:02;;;;;;;5.68;3.15;;;;;;;;;;6366656;28;20595;-75
2022/02/06 09:12:06;;;;;;;7.47;3.35;;;;;;;;;;6367192;27;20039;-76
2022/02/06 09:15:14;;;;;;;7.65;3.00;;;;;;;;;;6365640;28;20161;-75
2022/02/06 09:18:17;;;;;;;8.40;2.60;;;;;;;;;;6367768;27;20054;-76
2022/02/06 09:21:23;;;;;;;6.30;2.97;;;;;;;;;;6366360;28;20039;-75
2022/02/06 09:24:27;;;;;;;6.22;3.15;;;;;;;;;;6366470;28;20054;-76
2022/02/06 09:27:35;;;;;;;5.75;2.75;;;;;;;;;;6366320;28;20031;-75
2022/02/06 09:30:42;;;;;;;8.05;2.75;;;;;;;;;;6366573;28;20544;-75
2022/02/06 09:36:52;;;;;;;4.82;2.50;;;;;;;;;;6371795;27;20560;-75
2022/02/06 09:39:58;;;;;;;6.22;2.47;;;;;;;;;;6372825;27;20039;-74
2022/02/06 09:43:05;;;;;;;5.68;2.33;;;;;;;;;;6372383;27;20054;-78
2022/02/06 09:46:10;;;;;;;6.93;2.63;;;;;;;;;;6370207;27;20046;-79
2022/02/06 09:49:14;;;;;;;4.10;2.22;;;;;;;;;;6371032;27;20047;-78
2022/02/06 09:52:25;;;;;;;4.22;2.42;;;;;;;;;;6371407;27;20524;-75
2022/02/06 09:55:35;;;;;;;5.40;2.42;;;;;;;;;;6371240;27;20065;-77
2022/02/06 09:58:57;;;;;;;5.28;2.85;;;;;;;;;;6370046;27;20392;-76
2022/02/06 10:02:06;;;;;;;5.40;3.25;;;;;;;;;;6371837;27;20043;-77
2022/02/06 10:05:13;;;;;;;4.82;2.35;;;;;;;;;;6370988;27;20122;-79
2022/02/06 10:08:24;;;;;;;5.35;2.55;;;;;;;;;;6368378;27;20404;-77
2022/02/06 10:11:30;;;;;;;4.75;2.50;;;;;;;;;;6369261;27;20043;-77
2022/02/06 10:14:34;;;;;;;6.68;2.80;;;;;;;;;;6371021;27;20035;-78
2022/02/06 10:17:41;;;;;;;5.63;2.97;;;;;;;;;;6369045;27;20124;-77
2022/02/06 10:20:47;;;;;;;5.32;2.80;;;;;;;;;;6368256;27;20417;-79
2022/02/06 10:24:00;;;;;;;5.72;2.65;;;;;;;;;;6368299;27;20043;-80
2022/02/06 10:27:18;;;;;;;5.93;3.20;;;;;;;;;;6366519;27;20050;-80
2022/02/06 10:30:29;;;;;;;4.53;3.13;;;;;;;;;;6367108;27;20127;-79
2022/02/06 10:33:45;;;;;;;7.70;3.45;;;;;;;;;;6365235;27;20046;-79
2022/02/06 10:36:48;;;;;;;8.55;5.03;;;;;;;;;;6366157;27;20499;-78
2022/02/06 10:39:53;;;;;;;7.65;3.58;;;;;;;;;;6370438;27;20074;-77
2022/02/06 10:42:56;;;;;;;7.10;3.72;;;;;;;;;;6369830;27;20192;-78
2022/02/06 10:46:05;;;;;;;11.02;3.97;;;;;;;;;;6369936;27;20099;-78
2022/02/06 10:49:13;;;;;;;8.13;3.92;;;;;;;;;;6369890;27;20066;-77
2022/02/06 10:52:27;;;;;;;7.80;3.58;;;;;;;;;;6369096;27;20150;-77
2022/02/06 10:55:30;;;;;;;6.63;3.75;;;;;;;;;;6369651;27;20047;-77
2022/02/06 10:58:34;;;;;;;8.27;3.92;;;;;;;;;;6369451;27;20047;-80
2022/02/06 11:01:39;;;;;;;9.95;3.30;;;;;;;;;;6370686;27;20039;-79
2022/02/06 11:04:54;;;;;;;6.80;3.25;;;;;;;;;;6351365;27;20046;-81
2022/02/06 11:08:00;;;;;;;8.30;3.63;;;;;;;;;;6370189;27;20051;-80
2022/02/06 11:11:07;;;;;;;7.25;3.85;;;;;;;;;;6369460;27;20496;-80
2022/02/06 11:14:14;;;;;;;5.85;3.00;;;;;;;;;;6368979;27;20062;-79
2022/02/06 11:17:20;;;;;;;4.57;3.17;;;;;;;;;;6367871;27;20397;-79
2022/02/06 11:20:25;;;;;;;6.22;3.17;;;;;;;;;;6370234;27;20047;-80
2022/02/06 11:23:44;;;;;;;7.35;2.85;;;;;;;;;;6368873;27;20470;-79
2022/02/06 11:26:48;;;;;;;5.75;3.70;;;;;;;;;;6368130;27;20063;-79
2022/02/06 11:29:53;;;;;;;9.20;2.85;;;;;;;;;;6367802;27;20051;-79
2022/02/06 11:32:57;;;;;;;7.35;2.92;;;;;;;;;;6368754;27;20119;-80
2022/02/06 11:36:08;;;;;;;5.65;2.75;;;;;;;;;;6369934;27;20047;-79
2022/02/06 11:46:26;;;;;;;3.90;2.50;;;;;;;;;;6369284;27;20067;-81
2022/02/06 11:49:30;;;;;;;3.63;2.03;;;;;;;;;;6367998;27;20050;-83
2022/02/06 11:52:48;;;;;;;6.00;2.60;;;;;;;;;;6366884;27;20077;-84
2022/02/06 11:55:55;;;;;;;4.65;2.13;;;;;;;;;;6368129;27;20055;-77
2022/02/06 11:59:06;;;;;;;5.95;2.47;;;;;;;;;;6368531;27;20049;-77
2022/02/06 12:02:24;;;;;;;4.03;2.28;;;;;;;;;;6368561;27;20074;-75
2022/02/06 12:05:28;;;;;;;3.63;2.50;;;;;;;;;;6366447;27;20039;-77
2022/02/06 12:08:36;;;;;;;6.95;2.67;;;;;;;;;;6364617;27;20054;-76
2022/02/06 12:11:40;;;;;;;3.80;2.80;;;;;;;;;;6367031;27;20138;-80
2022/02/06 12:14:47;;;;;;;5.20;2.90;;;;;;;;;;6367073;27;20072;-81
2022/02/06 12:18:10;;;;;;;5.07;2.67;;;;;;;;;;6367711;27;20103;-84
2022/02/06 12:21:14;;;;;;;6.85;2.72;;;;;;;;;;6367106;27;20047;-83
2022/02/06 12:24:33;;;;;;;5.57;2.78;;;;;;;;;;6367719;27;20090;-81
2022/02/06 12:27:38;;;;;;;5.95;2.88;;;;;;;;;;6366810;27;20477;-75
2022/02/06 12:30:41;;;;;;;4.80;2.70;;;;;;;;;;6366363;27;20032;-88
2022/02/06 12:33:55;;;;;;;5.22;2.40;;;;;;;;;;6368518;27;20544;-78
2022/02/06 12:37:17;;;;;;;5.43;2.83;;;;;;;;;;6368106;27;20059;-77
2022/02/06 12:40:24;;;;;;;5.63;2.85;;;;;;;;;;6366247;27;20035;-82
2022/02/06 12:43:32;;;;;;;5.18;3.30;;;;;;;;;;6367549;27;20047;-81
2022/02/06 12:46:36;;;;;;;5.93;3.17;;;;;;;;;;6367524;27;20043;-78
2022/02/06 12:49:41;;;;;;;4.35;2.78;;;;;;;;;;6367843;27;20602;-80
2022/02/06 12:52:48;;;;;;;19.17;9.57;;;;;;;;;;6365466;27;20389;-81
2022/02/06 12:55:56;;;;;;;7.57;4.13;;;;;;;;;;6366165;27;20386;-81
2022/02/06 12:59:01;;;;;;;6.43;3.20;;;;;;;;;;6350296;28;20050;-79
2022/02/06 13:02:06;;;;;;;6.57;3.15;;;;;;;;;;6365947;27;20107;-74
2022/02/06 13:05:14;;;;;;;5.63;3.35;;;;;;;;;;6366129;27;20051;-80
2022/02/06 13:08:19;;;;;;;6.18;3.30;;;;;;;;;;6366717;27;20047;-82
2022/02/06 13:11:31;;;;;;;4.97;3.55;;;;;;;;;;6367817;27;20050;-85
2022/02/06 13:15:01;;;;;;;5.40;3.15;;;;;;;;;;6366513;28;20039;-84
2022/02/06 13:18:17;;;;;;;6.35;3.58;;;;;;;;;;6367296;27;20538;-89
2022/02/06 13:28:10;;;;;;;6.53;3.60;;;;;;;;;;6362699;28;20540;-87
2022/02/06 13:34:47;;;;;;;6.05;3.85;;;;;;;;;;6376934;27;20035;-88
2022/02/06 13:37:58;;;;;;;5.80;3.40;;;;;;;;;;6379190;28;20079;-86
2022/02/06 13:41:02;;;;;;;6.90;3.45;;;;;;;;;;6375530;28;20496;-86
2022/02/06 13:44:12;;;;;;;8.43;3.38;;;;;;;;;;6366597;28;20492;-87
2022/02/06 13:47:17;;;;;;;7.05;3.67;;;;;;;;;;6366370;28;20481;-86
2022/02/06 13:50:22;;;;;;;7.43;4.30;;;;;;;;;;6366478;28;20047;-88
2022/02/06 13:53:27;;;;;;;6.15;3.75;;;;;;;;;;6367173;27;20405;-83
2022/02/06 13:56:31;;;;;;;;;;;;;;;;;;6366418;28;20066;-83
2022/02/06 13:59:38;;;;;;;7.50;3.97;;;;;;;;;;6349401;28;20361;-89
2022/02/06 14:02:57;;;;;;;6.22;3.55;;;;;;;;;;6364914;28;20044;-85
2022/02/06 14:06:03;;;;;;;5.70;3.88;;;;;;;;;;6361590;28;20058;-82
2022/02/06 14:09:12;;;;;;;6.88;4.10;;;;;;;;;;6367988;27;20481;-88
2022/02/06 14:12:16;;;;;;;7.90;4.25;;;;;;;;;;6348596;28;20073;-78
2022/02/06 14:15:21;;;;;;;;;;;;;;;;;;6366789;27;20044;-83
2022/02/06 14:18:24;;;;;;;6.90;3.95;;;;;;;;;;6366464;28;19926;-83
2022/02/06 14:21:42;;;;;;;7.38;4.00;;;;;;;;;;6352071;27;20043;-79
2022/02/06 14:24:49;;;;;;;6.75;4.57;;;;;;;;;;6369297;27;20047;-80
2022/02/06 14:27:53;;;;;;;7.90;4.30;;;;;;;;;;6371420;27;20070;-77
2022/02/06 14:30:56;;;;;;;8.35;4.40;;;;;;;;;;6370096;27;20046;-76
2022/02/06 14:34:15;;;;;;;8.95;4.57;;;;;;;;;;6371314;27;20101;-78
2022/02/06 14:37:22;;;;;;;7.18;3.78;;;;;;;;;;6369823;27;20050;-77
2022/02/06 14:40:36;;;;;;;8.80;4.32;;;;;;;;;;6369625;27;20063;-77
2022/02/06 14:43:40;;;;;;;6.93;3.95;;;;;;;;;;6370236;27;20044;-78
2022/02/06 14:46:44;;;;;;;6.22;4.15;;;;;;;;;;6368923;27;20047;-83
2022/02/06 14:49:48;;;;;;;6.93;4.03;;;;;;;;;;6369386;27;20482;-83
2022/02/06 14:52:53;;;;;;;6.65;4.32;;;;;;;;;;6370091;27;20063;-76
2022/02/06 14:55:57;;;;;;;6.72;4.07;;;;;;;;;;6369181;27;20421;-78
2022/02/06 14:59:03;;;;;;;7.38;4.55;;;;;;;;;;6368134;27;20051;-79
2022/02/06 15:02:08;;;;;;;9.07;4.70;;;;;;;;;;6370196;27;20038;-77
2022/02/06 15:05:15;;;;;;;7.18;4.15;;;;;;;;;;6351913;27;20550;-78
2022/02/06 15:08:21;;;;;;;7.72;4.75;;;;;;;;;;6368350;27;20157;-83
2022/02/06 15:11:25;;;;;;;;;;;;;;;;;;6368743;27;20073;-78
2022/02/06 15:14:30;;;;;;;7.57;4.18;;;;;;;;;;6369202;27;20385;-81
2022/02/06 15:17:36;;;;;;;8.02;4.35;;;;;;;;;;6370095;27;20442;-76
2022/02/06 15:20:39;;;;;;;8.02;4.18;;;;;;;;;;6367822;27;20058;-73
2022/02/06 15:23:45;;;;;;;9.20;4.88;;;;;;;;;;6369695;27;20049;-78
2022/02/06 15:26:50;;;;;;;8.98;4.43;;;;;;;;;;6368406;27;20047;-79
2022/02/06 15:29:54;;;;;;;9.25;4.28;;;;;;;;;;6367386;27;20047;-76
2022/02/06 15:32:57;;;;;;;7.00;4.53;;;;;;;;;;6367651;27;20062;-75
2022/02/06 15:36:04;;;;;;;10.35;4.57;;;;;;;;;;6368845;27;20046;-85
2022/02/06 15:39:21;;;;;;;8.25;4.82;;;;;;;;;;6369394;27;20062;-80
2022/02/06 15:42:27;;;;;;;21.52;11.40;;;;;;;;;;6366538;27;20442;-79
2022/02/06 15:45:33;;;;;;;7.18;4.13;;;;;;;;;;6367744;27;20046;-83
2022/02/06 15:48:38;;;;;;;7.38;4.65;;;;;;;;;;6369692;27;20140;-81
2022/02/06 15:51:41;;;;;;;7.28;4.40;;;;;;;;;;6366969;27;20047;-78
2022/02/06 15:54:46;;;;;;;10.45;4.90;;;;;;;;;;6367338;27;20053;-78
2022/02/06 15:57:50;;;;;;;10.43;4.80;;;;;;;;;;6369057;27;20082;-77
2022/02/06 16:00:54;;;;;;;7.55;4.25;;;;;;;;;;6367135;27;20498;-79
2022/02/06 16:03:57;;;;;;;7.63;4.78;;;;;;;;;;6366138;27;20512;-77
2022/02/06 16:07:05;;;;;;;9.05;4.70;;;;;;;;;;6367351;27;20047;-77
2022/02/06 16:10:12;;;;;;;13.93;5.32;;;;;;;;;;6368760;27;20043;-77
2022/02/06 16:13:16;;;;;;;7.82;4.72;;;;;;;;;;6367438;27;20075;-77
2022/02/06 16:16:20;;;;;;;7.80;4.97;;;;;;;;;;6367944;27;20417;-78
2022/02/06 16:19:24;;;;;;;7.28;4.53;;;;;;;;;;6367288;27;20043;-78
2022/02/06 16:22:28;;;;;;;11.10;5.72;;;;;;;;;;6366364;27;20043;-80
2022/02/06 16:25:37;;;;;;;9.13;4.85;;;;;;;;;;6367472;27;20062;-79
2022/02/06 16:28:40;;;;;;;11.05;4.88;;;;;;;;;;6367423;27;20039;-77
2022/02/06 16:31:44;;;;;;;9.88;4.75;;;;;;;;;;6368351;27;20453;-77
2022/02/06 16:34:53;;;;;;;8.38;5.07;;;;;;;;;;6365555;27;20171;-76
2022/02/06 16:37:58;;;;;;;9.95;5.60;;;;;;;;;;6367748;27;20047;-76
2022/02/06 16:41:06;;;;;;;10.15;5.38;;;;;;;;;;6367081;27;20579;-73
2022/02/06 16:44:12;;;;;;;29.08;16.02;;;;;;;;;;6365544;27;20051;-77
2022/02/06 16:47:15;;;;;;;11.13;5.65;;;;;;;;;;6349297;27;20446;-76
2022/02/06 16:50:22;;;;;;;10.18;4.97;;;;;;;;;;6366956;27;20047;-76
2022/02/06 16:53:26;;;;;;;9.63;5.43;;;;;;;;;;6367944;27;20511;-75
2022/02/06 16:56:35;;;;;;;9.95;5.43;;;;;;;;;;6365556;27;20490;-76
2022/02/06 16:59:38;;;;;;;10.23;5.47;;;;;;;;;;6366303;27;20172;-78
2022/02/06 17:02:42;;;;;;;12.10;6.30;;;;;;;;;;6366751;27;20100;-76
2022/02/06 17:05:47;;;;;;;9.07;5.40;;;;;;;;;;6365563;27;20092;-74
2022/02/06 17:08:54;;;;;;;9.43;5.22;;;;;;;;;;6365841;28;20039;-76
2022/02/06 17:11:59;;;;;;;9.48;5.80;;;;;;;;;;6367791;27;20050;-77
2022/02/06 17:15:03;;;;;;;10.45;5.53;;;;;;;;;;6366413;28;20067;-76
2022/02/06 17:18:07;;;;;;;8.30;4.85;;;;;;;;;;6348588;28;20088;-77
2022/02/06 17:21:11;;;;;;;11.32;5.85;;;;;;;;;;6367350;27;20043;-77
2022/02/06 17:24:17;;;;;;;10.60;5.60;;;;;;;;;;6366757;28;20516;-82
2022/02/06 17:27:28;;;;;;;8.70;5.50;;;;;;;;;;6365799;28;20252;-76
2022/02/06 17:30:32;;;;;;;9.38;5.40;;;;;;;;;;6365957;28;20046;-77
2022/02/06 17:33:38;;;;;;;8.45;5.65;;;;;;;;;;6366447;28;20088;-78
2022/02/06 17:36:42;;;;;;;9.55;5.38;;;;;;;;;;6367162;27;20523;-74
2022/02/06 17:39:46;;;;;;;8.88;5.60;;;;;;;;;;6365539;28;20051;-76
2022/02/06 17:42:53;;;;;;;;;;;;;;;;;;6367661;27;20053;-78
2022/02/06 17:46:00;;;;;;;10.95;5.43;;;;;;;;;;6366443;28;19926;-78
2022/02/06 17:49:03;;;;;;;9.82;5.82;;;;;;;;;;6366426;27;20504;-79
2022/02/06 17:52:10;;;;;;;8.23;5.13;;;;;;;;;;6365661;28;20463;-77
2022/02/06 17:55:13;;;;;;;8.82;5.32;;;;;;;;;;6366892;27;20051;-76
2022/02/06 17:58:22;;;;;;;10.95;6.05;;;;;;;;;;6371783;27;20057;-81
2022/02/06 18:01:27;;;;;;;10.80;5.70;;;;;;;;;;6369911;27;20035;-79
2022/02/06 18:04:31;;;;;;;8.50;5.75;;;;;;;;;;6370676;27;20062;-77
2022/02/06 18:07:34;;;;;;;11.93;6.32;;;;;;;;;;6370593;27;20043;-79
2022/02/06 18:10:38;;;;;;;12.02;6.15;;;;;;;;;;6352708;27;20126;-85
2022/02/06 18:13:41;;;;;;;11.57;5.53;;;;;;;;;;6370069;27;20039;-78
2022/02/06 18:16:50;;;;;;;10.80;5.50;;;;;;;;;;6371831;27;20043;-85
2022/02/06 18:19:54;;;;;;;11.48;6.40;;;;;;;;;;6371349;27;20031;-81
2022/02/06 18:23:03;;;;;;;12.27;6.75;;;;;;;;;;6370807;27;20051;-79
2022/02/06 18:26:06;;;;;;;14.27;7.00;;;;;;;;;;6369983;27;20043;-81
2022/02/06 18:29:13;;;;;;;12.35;6.97;;;;;;;;;;6370331;27;20134;-83
2022/02/06 18:32:18;;;;;;;75.63;44.55;;;;;;;;;;6368985;27;20047;-79
2022/02/06 18:35:22;;;;;;;14.68;7.82;;;;;;;;;;6369752;27;20089;-78
2022/02/06 18:38:26;;;;;;;10.43;6.25;;;;;;;;;;6370000;27;20039;-81
2022/02/06 18:41:32;;;;;;;12.00;6.43;;;;;;;;;;6370398;27;20046;-81
2022/02/06 18:44:35;;;;;;;12.93;6.50;;;;;;;;;;6371310;27;20043;-82
2022/02/06 18:47:42;;;;;;;11.85;6.88;;;;;;;;;;6370982;27;20090;-77
2022/02/06 18:50:46;;;;;;;12.27;6.35;;;;;;;;;;6372549;27;20116;-80
2022/02/06 18:53:50;;;;;;;13.95;7.18;;;;;;;;;;6371252;27;20480;-80
2022/02/06 18:56:56;;;;;;;14.73;7.30;;;;;;;;;;6370598;27;20182;-80
2022/02/06 19:00:02;;;;;;;10.82;5.82;;;;;;;;;;6371797;27;20050;-83
2022/02/06 19:03:06;;;;;;;;;;;;;;;;;;6371834;27;20050;-76
2022/02/06 19:06:12;;;;;;;11.80;6.10;;;;;;;;;;6371827;27;19925;-82
2022/02/06 19:09:18;;;;;;;13.40;6.57;;;;;;;;;;6353746;27;20046;-81
2022/02/06 19:12:22;;;;;;;8.82;5.25;;;;;;;;;;6369520;27;20397;-78
2022/02/06 19:15:26;;;;;;;8.23;5.05;;;;;;;;;;6369243;27;20040;-78
2022/02/06 19:18:32;;;;;;;10.70;5.32;;;;;;;;;;6373079;27;20102;-87
2022/02/06 19:21:38;;;;;;;;;;;;;;;;;;6356829;27;20500;-87
2022/02/06 19:24:47;;;;;;;21.50;13.68;;;;;;;;;;6352930;27;19924;-85
2022/02/06 19:27:52;;;;;;;8.25;5.35;;;;;;;;;;6369347;27;20050;-79
2022/02/06 19:30:59;;;;;;;65.85;34.47;;;;;;;;;;6371228;27;20059;-79
2022/02/06 19:34:10;;;;;;;21.20;12.15;;;;;;;;;;6368171;27;20095;-78
2022/02/06 19:37:14;;;;;;;10.90;5.63;;;;;;;;;;6369210;27;20126;-82
2022/02/06 19:40:22;;;;;;;10.52;5.18;;;;;;;;;;6367360;27;20031;-81
2022/02/06 19:43:28;;;;;;;8.98;5.53;;;;;;;;;;6369159;27;20043;-77
2022/02/06 19:46:33;;;;;;;10.68;6.32;;;;;;;;;;6367574;27;20039;-82
2022/02/06 19:49:36;;;;;;;9.27;5.53;;;;;;;;;;6368220;27;20074;-79
2022/02/06 19:52:40;;;;;;;10.32;5.47;;;;;;;;;;6368374;27;20138;-76
2022/02/06 19:55:46;;;;;;;14.45;6.07;;;;;;;;;;6367367;27;20516;-74
2022/02/06 19:58:50;;;;;;;9.45;6.20;;;;;;;;;;6368510;27;20055;-74
2022/02/06 20:01:54;;;;;;;13.55;6.97;;;;;;;;;;6369172;27;20082;-74
2022/02/06 20:05:00;;;;;;;11.85;6.03;;;;;;;;;;6366463;27;20046;-75
2022/02/06 20:08:08;;;;;;;10.50;5.97;;;;;;;;;;6364214;27;20047;-75
2022/02/06 20:11:14;;;;;;;11.45;6.20;;;;;;;;;;6349635;27;20043;-76
2022/02/06 20:14:17;;;;;;;;;;;;;;;;;;6367665;27;20046;-77
2022/02/06 20:17:21;;;;;;;9.15;5.95;;;;;;;;;;6366125;27;19965;-78
2022/02/06 20:20:25;;;;;;;11.00;6.60;;;;;;;;;;6367053;27;20063;-76